createdAt,value
2018-11-27T00:00:28.914Z,100616.33
2018-11-27T00:01:32.888Z,100615.77
2018-11-27T00:02:36.295Z,100616.42
2018-11-27T00:03:45.043Z,100621.45
2018-11-27T00:04:48.485Z,100620.41
2018-11-27T00:05:51.902Z,100619.13
2018-11-27T00:06:55.362Z,100618.89
2018-11-27T00:07:58.955Z,100619.52
2018-11-27T00:09:02.449Z,100620.65
2018-11-27T00:10:08.556Z,100622.92
2018-11-27T00:11:11.951Z,100619.13
2018-11-27T00:12:15.379Z,100627.14
2018-11-27T00:13:18.885Z,100628.94
2018-11-27T00:14:22.360Z,100632.02
2018-11-27T00:15:25.803Z,100631.84
2018-11-27T00:16:29.293Z,100630.55
2018-11-27T00:17:32.820Z,100635.00
2018-11-27T00:18:36.291Z,100636.38
2018-11-27T00:19:39.735Z,100640.59
2018-11-27T00:20:43.235Z,100638.56
2018-11-27T00:21:46.744Z,100637.67
2018-11-27T00:22:50.154Z,100640.33
2018-11-27T00:23:53.662Z,100640.76
2018-11-27T00:24:57.098Z,100639.86
2018-11-27T00:26:00.596Z,100636.21
2018-11-27T00:27:04.089Z,100633.94
2018-11-27T00:28:07.540Z,100631.99
2018-11-27T00:29:10.998Z,100632.08
2018-11-27T00:30:16.383Z,100630.70
2018-11-27T00:31:19.992Z,100633.46
2018-11-27T00:32:23.415Z,100635.31
2018-11-27T00:33:26.810Z,100633.37
2018-11-27T00:34:30.200Z,100641.87
2018-11-27T00:35:33.697Z,100639.92
2018-11-27T00:36:37.118Z,100641.55
2018-11-27T00:37:40.639Z,100634.98
2018-11-27T00:38:44.166Z,100631.42
2018-11-27T00:39:47.642Z,100634.51
2018-11-27T00:40:51.078Z,100635.88
2018-11-27T00:41:54.535Z,100634.27
2018-11-27T00:42:57.941Z,100640.34
2018-11-27T00:44:01.349Z,100645.38
2018-11-27T00:45:06.995Z,100641.30
2018-11-27T00:46:10.440Z,100635.55
2018-11-27T00:47:13.870Z,100639.44
2018-11-27T00:48:17.342Z,100647.22
2018-11-27T00:49:20.757Z,100643.66
2018-11-27T00:50:24.981Z,100640.67
2018-11-27T00:51:28.401Z,100641.89
2018-11-27T00:52:31.831Z,100649.59
2018-11-27T00:53:35.224Z,100642.79
2018-11-27T00:54:38.665Z,100645.84
2018-11-27T00:55:42.131Z,100645.92
2018-11-27T00:56:45.641Z,100643.50
2018-11-27T00:57:52.502Z,100641.08
2018-11-27T00:58:55.921Z,100642.94
2018-11-27T00:59:59.475Z,100642.61
2018-11-27T01:01:02.943Z,100644.17
2018-11-27T01:02:06.873Z,100642.94
2018-11-27T01:03:10.256Z,100650.45
2018-11-27T01:04:13.783Z,100644.30
2018-11-27T01:05:18.614Z,100645.52
2018-11-27T01:06:22.087Z,100646.23
2018-11-27T01:07:25.501Z,100644.77
2018-11-27T01:08:28.930Z,100648.34
2018-11-27T01:09:32.458Z,100647.11
2018-11-27T01:10:35.892Z,100649.30
2018-11-27T01:11:39.306Z,100650.37
2018-11-27T01:12:42.768Z,100648.19
2018-11-27T01:13:46.237Z,100649.30
2018-11-27T01:14:49.644Z,100647.34
2018-11-27T01:15:53.078Z,100650.43
2018-11-27T01:16:56.547Z,100650.67
2018-11-27T01:18:00.037Z,100654.33
2018-11-27T01:19:03.517Z,100651.42
2018-11-27T01:20:11.239Z,100655.79
2018-11-27T01:21:14.707Z,100658.88
2018-11-27T01:22:18.156Z,100658.72
2018-11-27T01:23:21.564Z,100661.00
2018-11-27T01:24:25.018Z,100660.81
2018-11-27T01:25:28.441Z,100660.09
2018-11-27T01:26:31.858Z,100656.86
2018-11-27T01:27:35.286Z,100662.12
2018-11-27T01:28:38.708Z,100666.58
2018-11-27T01:29:42.115Z,100660.59
2018-11-27T01:30:45.504Z,100669.99
2018-11-27T01:31:49.006Z,100666.75
2018-11-27T01:32:52.750Z,100669.56
2018-11-27T01:33:56.170Z,100671.84
2018-11-27T01:34:59.566Z,100676.30
2018-11-27T01:36:03.041Z,100674.34
2018-11-27T01:37:06.503Z,100675.31
2018-11-27T01:38:09.926Z,100676.55
2018-11-27T01:39:13.315Z,100672.00
2018-11-27T01:40:17.924Z,100673.45
2018-11-27T01:41:21.335Z,100678.89
2018-11-27T01:42:24.768Z,100672.16
2018-11-27T01:43:28.217Z,100677.02
2018-11-27T01:44:31.620Z,100674.26
2018-11-27T01:45:35.309Z,100673.45
2018-11-27T01:46:38.761Z,100679.68
2018-11-27T01:47:42.215Z,100671.75
2018-11-27T01:48:46.041Z,100677.97
2018-11-27T01:49:49.683Z,100673.36
2018-11-27T01:50:53.101Z,100681.95
2018-11-27T01:51:56.493Z,100679.53
2018-11-27T01:52:59.949Z,100677.64
2018-11-27T01:54:03.443Z,100682.67
2018-11-27T01:55:08.657Z,100684.37
2018-11-27T01:56:12.081Z,100678.63
2018-11-27T01:57:15.579Z,100681.14
2018-11-27T01:58:19.300Z,100679.05
2018-11-27T01:59:22.746Z,100682.13
2018-11-27T02:00:28.404Z,100682.22
2018-11-27T02:01:31.882Z,100684.78
2018-11-27T02:02:35.322Z,100678.23
2018-11-27T02:03:38.887Z,100688.20
2018-11-27T02:04:42.330Z,100681.40
2018-11-27T02:05:45.774Z,100683.67
2018-11-27T02:06:49.237Z,100684.56
2018-11-27T02:07:52.675Z,100681.57
2018-11-27T02:08:56.067Z,100675.59
2018-11-27T02:09:59.596Z,100681.09
2018-11-27T02:11:03.082Z,100683.90
2018-11-27T02:12:06.878Z,100678.16
2018-11-27T02:13:10.400Z,100679.86
2018-11-27T02:14:13.819Z,100680.91
2018-11-27T02:15:19.575Z,100674.45
2018-11-27T02:16:23.033Z,100676.61
2018-11-27T02:17:26.445Z,100678.47
2018-11-27T02:18:29.873Z,100680.84
2018-11-27T02:19:33.301Z,100683.17
2018-11-27T02:20:37.504Z,100675.88
2018-11-27T02:21:40.940Z,100673.12
2018-11-27T02:22:44.411Z,100673.60
2018-11-27T02:23:47.824Z,100663.39
2018-11-27T02:24:51.252Z,100669.14
2018-11-27T02:25:54.822Z,100660.07
2018-11-27T02:26:58.242Z,100659.68
2018-11-27T02:28:01.669Z,100665.19
2018-11-27T02:29:05.215Z,100660.48
2018-11-27T02:30:10.774Z,100665.19
2018-11-27T02:31:14.267Z,100661.06
2018-11-27T02:32:17.860Z,100659.50
2018-11-27T02:33:21.553Z,100668.33
2018-11-27T02:34:24.989Z,100664.86
2018-11-27T02:35:28.452Z,100669.89
2018-11-27T02:36:31.889Z,100678.95
2018-11-27T02:37:35.298Z,100669.89
2018-11-27T02:38:38.722Z,100675.48
2018-11-27T02:39:42.132Z,100676.38
2018-11-27T02:40:45.624Z,100672.91
2018-11-27T02:41:49.071Z,100668.03
2018-11-27T02:42:52.523Z,100669.97
2018-11-27T02:43:56.127Z,100669.48
2018-11-27T02:44:59.546Z,100673.14
2018-11-27T02:46:03.175Z,100671.84
2018-11-27T02:47:06.794Z,100677.36
2018-11-27T02:48:10.209Z,100674.45
2018-11-27T02:49:13.608Z,100668.19
2018-11-27T02:50:19.212Z,100674.83
2018-11-27T02:51:22.691Z,100677.34
2018-11-27T02:52:26.119Z,100678.34
2018-11-27T02:53:29.530Z,100683.67
2018-11-27T02:54:32.977Z,100676.61
2018-11-27T02:55:36.457Z,100676.28
2018-11-27T02:56:39.864Z,100686.02
2018-11-27T02:57:43.307Z,100678.56
2018-11-27T02:58:46.804Z,100680.18
2018-11-27T02:59:50.281Z,100686.17
2018-11-27T03:00:53.698Z,100678.95
2018-11-27T03:01:57.104Z,100677.02
2018-11-27T03:03:00.729Z,100683.48
2018-11-27T03:04:04.132Z,100684.29
2018-11-27T03:05:11.159Z,100675.22
2018-11-27T03:06:14.571Z,100683.66
2018-11-27T03:07:18.123Z,100686.89
2018-11-27T03:08:22.664Z,100684.70
2018-11-27T03:09:25.067Z,100683.91
2018-11-27T03:10:28.507Z,100684.80
2018-11-27T03:11:31.949Z,100684.86
2018-11-27T03:12:35.410Z,100687.37
2018-11-27T03:13:38.839Z,100692.64
2018-11-27T03:14:42.238Z,100690.21
2018-11-27T03:15:45.687Z,100687.55
2018-11-27T03:16:49.107Z,100694.76
2018-11-27T03:17:52.525Z,100697.60
2018-11-27T03:18:56.028Z,100698.73
2018-11-27T03:19:59.436Z,100704.25
2018-11-27T03:21:02.932Z,100699.13
2018-11-27T03:22:06.577Z,100701.39
2018-11-27T03:23:09.981Z,100703.42
2018-11-27T03:24:13.406Z,100702.38
2018-11-27T03:25:18.928Z,100702.70
2018-11-27T03:26:22.358Z,100700.84
2018-11-27T03:27:25.838Z,100698.71
2018-11-27T03:28:29.396Z,100704.73
2018-11-27T03:29:32.814Z,100701.98
2018-11-27T03:30:36.256Z,100706.83
2018-11-27T03:31:39.727Z,100708.93
2018-11-27T03:32:43.464Z,100709.98
2018-11-27T03:33:46.874Z,100711.75
2018-11-27T03:34:50.319Z,100714.13
2018-11-27T03:35:53.745Z,100715.09
2018-11-27T03:36:57.185Z,100717.09
2018-11-27T03:38:00.670Z,100719.47
2018-11-27T03:39:04.778Z,100712.91
2018-11-27T03:40:13.701Z,100716.14
2018-11-27T03:41:17.154Z,100713.15
2018-11-27T03:42:20.590Z,100716.47
2018-11-27T03:43:23.984Z,100718.09
2018-11-27T03:44:27.425Z,100715.91
2018-11-27T03:45:30.834Z,100715.39
2018-11-27T03:46:34.269Z,100716.20
2018-11-27T03:47:37.691Z,100716.71
2018-11-27T03:48:41.074Z,100720.33
2018-11-27T03:49:44.563Z,100725.03
2018-11-27T03:50:48.144Z,100719.94
2018-11-27T03:51:51.599Z,100723.83
2018-11-27T03:52:55.022Z,100730.47
2018-11-27T03:53:58.459Z,100727.56
2018-11-27T03:55:01.864Z,100731.70
2018-11-27T03:56:06.141Z,100727.65
2018-11-27T03:57:09.552Z,100734.86
2018-11-27T03:58:12.976Z,100738.15
2018-11-27T03:59:16.423Z,100731.92
2018-11-27T04:00:24.524Z,100733.95
2018-11-27T04:01:28.016Z,100736.46
2018-11-27T04:02:31.447Z,100735.66
2018-11-27T04:03:34.894Z,100746.75
2018-11-27T04:04:38.406Z,100734.69
2018-11-27T04:05:42.765Z,100736.95
2018-11-27T04:06:46.297Z,100735.02
2018-11-27T04:07:49.775Z,100734.52
2018-11-27T04:08:53.625Z,100733.62
2018-11-27T04:09:57.020Z,100732.16
2018-11-27T04:11:00.441Z,100735.34
2018-11-27T04:12:03.939Z,100736.06
2018-11-27T04:13:07.335Z,100740.83
2018-11-27T04:14:10.768Z,100741.31
2018-11-27T04:15:14.377Z,100743.69
2018-11-27T04:16:17.787Z,100745.30
2018-11-27T04:17:21.665Z,100751.38
2018-11-27T04:18:25.049Z,100749.92
2018-11-27T04:19:28.487Z,100745.55
2018-11-27T04:20:32.372Z,100748.54
2018-11-27T04:21:35.367Z,100744.89
2018-11-27T04:22:39.396Z,100753.16
2018-11-27T04:23:42.839Z,100747.16
2018-11-27T04:24:46.322Z,100746.11
2018-11-27T04:25:49.759Z,100750.25
2018-11-27T04:26:53.267Z,100743.92
2018-11-27T04:27:57.023Z,100752.28
2018-11-27T04:29:00.482Z,100751.20
2018-11-27T04:30:04.181Z,100744.97
2018-11-27T04:31:07.616Z,100747.48
2018-11-27T04:32:11.112Z,100747.00
2018-11-27T04:33:14.634Z,100753.40
2018-11-27T04:34:18.075Z,100747.41
2018-11-27T04:35:22.351Z,100751.30
2018-11-27T04:36:25.758Z,100745.03
2018-11-27T04:37:29.187Z,100748.44
2018-11-27T04:38:32.720Z,100749.58
2018-11-27T04:39:36.155Z,100749.33
2018-11-27T04:40:39.586Z,100748.28
2018-11-27T04:41:43.014Z,100752.50
2018-11-27T04:42:46.578Z,100750.88
2018-11-27T04:43:50.057Z,100746.27
2018-11-27T04:44:53.456Z,100753.55
2018-11-27T04:45:56.965Z,100749.81
2018-11-27T04:47:00.403Z,100753.30
2018-11-27T04:48:03.869Z,100749.44
2018-11-27T04:49:07.732Z,100758.58
2018-11-27T04:50:12.547Z,100750.47
2018-11-27T04:51:16.019Z,100749.81
2018-11-27T04:52:19.432Z,100749.81
2018-11-27T04:53:23.085Z,100755.33
2018-11-27T04:54:26.493Z,100749.77
2018-11-27T04:55:29.933Z,100753.09
2018-11-27T04:56:33.451Z,100751.14
2018-11-27T04:57:36.828Z,100756.08
2018-11-27T04:58:40.287Z,100760.21
2018-11-27T04:59:43.743Z,100765.23
2018-11-27T05:00:47.226Z,100767.91
2018-11-27T05:01:50.585Z,100766.20
2018-11-27T05:02:54.065Z,100764.59
2018-11-27T05:03:57.481Z,100766.53
2018-11-27T05:05:00.931Z,100769.61
2018-11-27T05:06:04.367Z,100769.09
2018-11-27T05:07:07.825Z,100768.29
2018-11-27T05:08:11.250Z,100764.24
2018-11-27T05:09:14.686Z,100769.99
2018-11-27T05:10:20.099Z,100775.59
2018-11-27T05:11:23.476Z,100771.54
2018-11-27T05:12:26.887Z,100773.24
2018-11-27T05:13:30.309Z,100779.31
2018-11-27T05:14:33.825Z,100773.14
2018-11-27T05:15:37.256Z,100779.21
2018-11-27T05:16:40.650Z,100774.59
2018-11-27T05:17:48.025Z,100776.30
2018-11-27T05:18:48.331Z,100779.37
2018-11-27T05:19:51.723Z,100778.89
2018-11-27T05:20:55.292Z,100773.39
2018-11-27T05:21:58.694Z,100780.67
2018-11-27T05:23:02.095Z,100773.70
2018-11-27T05:24:06.612Z,100770.66
2018-11-27T05:25:12.370Z,100779.56
2018-11-27T05:26:15.825Z,100781.42
2018-11-27T05:27:19.232Z,100776.39
2018-11-27T05:28:22.617Z,100773.31
2018-11-27T05:29:26.033Z,100777.93
2018-11-27T05:30:29.811Z,100780.87
2018-11-27T05:31:33.244Z,100779.73
2018-11-27T05:32:36.718Z,100782.64
2018-11-27T05:33:40.118Z,100780.94
2018-11-27T05:34:43.522Z,100781.42
2018-11-27T05:35:48.080Z,100783.28
2018-11-27T05:36:50.487Z,100786.03
2018-11-27T05:37:53.917Z,100780.85
2018-11-27T05:38:57.366Z,100783.61
2018-11-27T05:40:00.853Z,100782.56
2018-11-27T05:41:04.488Z,100779.56
2018-11-27T05:42:07.900Z,100780.61
2018-11-27T05:43:11.481Z,100785.72
2018-11-27T05:44:14.920Z,100784.11
2018-11-27T05:45:19.642Z,100794.31
2018-11-27T05:46:23.099Z,100795.83
2018-11-27T05:47:26.662Z,100789.84
2018-11-27T05:48:30.106Z,100797.94
2018-11-27T05:49:33.526Z,100798.27
2018-11-27T05:50:37.023Z,100796.73
2018-11-27T05:51:40.394Z,100792.36
2018-11-27T05:52:43.867Z,100795.97
2018-11-27T05:53:47.271Z,100795.73
2018-11-27T05:54:50.747Z,100798.57
2018-11-27T05:55:54.159Z,100799.22
2018-11-27T05:56:57.566Z,100803.67
2018-11-27T05:58:00.991Z,100807.32
2018-11-27T05:59:04.446Z,100807.16
2018-11-27T06:00:15.537Z,100811.58
2018-11-27T06:01:18.971Z,100812.91
2018-11-27T06:02:22.495Z,100809.66
2018-11-27T06:03:26.077Z,100813.74
2018-11-27T06:04:29.521Z,100819.33
2018-11-27T06:05:32.993Z,100816.92
2018-11-27T06:06:36.445Z,100818.20
2018-11-27T06:07:39.903Z,100816.91
2018-11-27T06:08:43.351Z,100816.77
2018-11-27T06:09:46.824Z,100813.44
2018-11-27T06:10:50.419Z,100814.20
2018-11-27T06:11:53.858Z,100818.57
2018-11-27T06:12:57.427Z,100817.44
2018-11-27T06:14:00.884Z,100819.63
2018-11-27T06:15:04.903Z,100831.45
2018-11-27T06:16:08.399Z,100833.24
2018-11-27T06:17:12.086Z,100831.35
2018-11-27T06:18:15.589Z,100831.67
2018-11-27T06:19:19.108Z,100832.25
2018-11-27T06:20:23.377Z,100831.48
2018-11-27T06:21:26.800Z,100832.63
2018-11-27T06:22:30.225Z,100835.47
2018-11-27T06:23:33.684Z,100830.61
2018-11-27T06:24:37.191Z,100834.50
2018-11-27T06:25:40.658Z,100838.70
2018-11-27T06:26:44.119Z,100844.27
2018-11-27T06:27:49.193Z,100841.84
2018-11-27T06:28:53.207Z,100843.63
2018-11-27T06:29:56.753Z,100840.14
2018-11-27T06:31:00.315Z,100852.30
2018-11-27T06:32:03.720Z,100850.75
2018-11-27T06:33:07.280Z,100847.00
2018-11-27T06:34:10.742Z,100847.32
2018-11-27T06:35:21.033Z,100852.91
2018-11-27T06:36:24.465Z,100856.96
2018-11-27T06:37:28.016Z,100849.99
2018-11-27T06:38:31.464Z,100855.86
2018-11-27T06:39:34.887Z,100855.77
2018-11-27T06:40:38.397Z,100862.74
2018-11-27T06:41:41.851Z,100857.91
2018-11-27T06:42:45.346Z,100864.71
2018-11-27T06:43:49.202Z,100861.88
2018-11-27T06:44:52.608Z,100862.84
2018-11-27T06:45:56.023Z,100867.17
2018-11-27T06:46:59.448Z,100865.79
2018-11-27T06:48:02.864Z,100866.06
2018-11-27T06:49:07.081Z,100868.00
2018-11-27T06:50:12.735Z,100869.92
2018-11-27T06:52:18.817Z,100871.57
2018-11-27T06:53:22.402Z,100875.19
2018-11-27T06:54:25.812Z,100875.48
2018-11-27T06:55:29.362Z,100870.05
2018-11-27T06:56:32.836Z,100874.19
2018-11-27T06:57:36.623Z,100878.16
2018-11-27T06:58:40.133Z,100875.48
2018-11-27T06:59:43.675Z,100874.76
2018-11-27T07:00:47.232Z,100882.30
2018-11-27T07:01:50.727Z,100885.66
2018-11-27T07:02:54.791Z,100887.36
2018-11-27T07:03:58.337Z,100892.39
2018-11-27T07:05:01.714Z,100889.95
2018-11-27T07:06:05.406Z,100895.22
2018-11-27T07:07:08.803Z,100887.36
2018-11-27T07:08:12.294Z,100887.69
2018-11-27T07:09:17.439Z,100893.48
2018-11-27T07:10:36.764Z,100894.30
2018-11-27T07:11:40.273Z,100894.17
2018-11-27T07:12:43.787Z,100894.82
2018-11-27T07:13:47.249Z,100894.69
2018-11-27T07:14:50.741Z,100894.52
2018-11-27T07:15:54.308Z,100900.77
2018-11-27T07:16:57.712Z,100904.73
2018-11-27T07:18:01.168Z,100906.19
2018-11-27T07:19:04.634Z,100903.36
2018-11-27T07:20:10.339Z,100912.38
2018-11-27T07:21:13.873Z,100918.65
2018-11-27T07:22:18.229Z,100921.41
2018-11-27T07:23:21.640Z,100925.78
2018-11-27T07:24:25.090Z,100936.31
2018-11-27T07:25:28.510Z,100928.05
2018-11-27T07:26:31.919Z,100927.53
2018-11-27T07:27:35.347Z,100933.34
2018-11-27T07:28:38.751Z,100935.04
2018-11-27T07:29:42.174Z,100937.06
2018-11-27T07:30:45.607Z,100934.55
2018-11-27T07:31:49.078Z,100934.63
2018-11-27T07:32:52.617Z,100931.95
2018-11-27T07:33:56.035Z,100937.55
2018-11-27T07:34:59.404Z,100936.48
2018-11-27T07:36:02.877Z,100937.11
2018-11-27T07:37:06.567Z,100937.27
2018-11-27T07:38:10.127Z,100938.15
2018-11-27T07:39:13.527Z,100941.80
2018-11-27T07:40:18.579Z,100941.06
2018-11-27T07:41:22.069Z,100943.30
2018-11-27T07:42:25.480Z,100943.62
2018-11-27T07:43:28.875Z,100948.31
2018-11-27T07:44:32.274Z,100949.69
2018-11-27T07:45:36.047Z,100953.94
2018-11-27T07:46:39.529Z,100946.50
2018-11-27T07:47:43.016Z,100946.63
2018-11-27T07:48:47.640Z,100947.59
2018-11-27T07:49:52.683Z,100944.11
2018-11-27T07:50:56.182Z,100948.77
2018-11-27T07:51:59.699Z,100944.88
2018-11-27T07:53:03.111Z,100937.47
2018-11-27T07:54:06.547Z,100950.34
2018-11-27T07:55:13.387Z,100946.45
2018-11-27T07:56:16.861Z,100946.20
2018-11-27T07:57:20.405Z,100943.45
2018-11-27T07:58:23.776Z,100938.75
2018-11-27T07:59:27.177Z,100942.88
2018-11-27T08:00:30.647Z,100939.64
2018-11-27T08:01:34.167Z,100942.13
2018-11-27T08:02:37.665Z,100946.01
2018-11-27T08:03:41.107Z,100943.30
2018-11-27T08:04:44.539Z,100947.44
2018-11-27T08:05:47.993Z,100947.76
2018-11-27T08:06:51.456Z,100950.59
2018-11-27T08:07:56.159Z,100948.97
2018-11-27T08:08:59.586Z,100946.86
2018-11-27T08:10:03.049Z,100948.89
2018-11-27T08:11:06.612Z,100949.77
2018-11-27T08:12:10.034Z,100955.33
2018-11-27T08:13:13.591Z,100956.46
2018-11-27T08:14:17.023Z,100957.67
2018-11-27T08:15:21.918Z,100953.05
2018-11-27T08:16:25.363Z,100957.75
2018-11-27T08:17:28.806Z,100956.86
2018-11-27T08:18:32.203Z,100952.66
2018-11-27T08:19:35.667Z,100953.06
2018-11-27T08:20:39.139Z,100952.13
2018-11-27T08:21:42.560Z,100950.52
2018-11-27T08:22:46.053Z,100958.60
2018-11-27T08:23:49.665Z,100953.09
2018-11-27T08:24:53.113Z,100956.25
2018-11-27T08:25:56.699Z,100958.93
2018-11-27T08:27:00.127Z,100959.41
2018-11-27T08:28:03.598Z,100960.80
2018-11-27T08:29:07.391Z,100963.55
2018-11-27T08:30:14.742Z,100963.79
2018-11-27T08:31:18.261Z,100961.03
2018-11-27T08:32:21.673Z,100969.06
2018-11-27T08:33:25.141Z,100970.68
2018-11-27T08:34:28.628Z,100971.33
2018-11-27T08:35:32.304Z,100970.44
2018-11-27T08:36:35.731Z,100969.16
2018-11-27T08:37:39.263Z,100966.88
2018-11-27T08:38:42.736Z,100974.56
2018-11-27T08:39:46.198Z,100975.58
2018-11-27T08:40:49.738Z,100974.72
2018-11-27T08:41:53.139Z,100976.56
2018-11-27T08:42:56.552Z,100984.90
2018-11-27T08:44:00.015Z,100989.67
2018-11-27T08:45:03.455Z,100991.05
2018-11-27T08:46:06.929Z,100986.10
2018-11-27T08:47:10.343Z,100989.14
2018-11-27T08:48:13.784Z,100992.29
2018-11-27T08:49:17.411Z,100987.17
2018-11-27T08:50:22.121Z,100990.07
2018-11-27T08:51:25.545Z,100986.06
2018-11-27T08:52:28.981Z,100988.07
2018-11-27T08:53:32.397Z,100989.77
2018-11-27T08:54:35.879Z,100985.39
2018-11-27T08:55:42.631Z,100985.46
2018-11-27T08:56:46.126Z,100986.84
2018-11-27T08:57:49.911Z,100985.70
2018-11-27T08:58:53.444Z,100981.33
2018-11-27T08:59:56.847Z,100989.34
2018-11-27T09:01:00.273Z,100985.46
2018-11-27T09:02:03.905Z,100987.72
2018-11-27T09:03:07.396Z,100991.56
2018-11-27T09:04:10.891Z,100991.32
2018-11-27T09:05:14.799Z,100993.89
2018-11-27T09:06:18.399Z,100994.84
2018-11-27T09:07:21.904Z,100994.95
2018-11-27T09:08:25.317Z,100998.62
2018-11-27T09:09:28.813Z,100994.31
2018-11-27T09:10:32.257Z,101000.70
2018-11-27T09:11:35.743Z,101003.76
2018-11-27T09:12:39.280Z,101000.70
2018-11-27T09:13:42.723Z,100994.38
2018-11-27T09:14:46.203Z,100991.95
2018-11-27T09:15:49.731Z,100994.45
2018-11-27T09:16:53.183Z,100996.56
2018-11-27T09:18:05.242Z,100994.62
2018-11-27T09:19:08.695Z,100994.81
2018-11-27T09:20:12.940Z,101006.77
2018-11-27T09:21:16.408Z,101004.20
2018-11-27T09:22:19.931Z,101008.22
2018-11-27T09:23:23.347Z,101006.45
2018-11-27T09:24:26.821Z,101012.09
2018-11-27T09:25:30.240Z,101011.22
2018-11-27T09:26:33.698Z,101005.33
2018-11-27T09:27:37.337Z,101012.34
2018-11-27T09:28:40.763Z,101010.08
2018-11-27T09:29:44.113Z,101005.07
2018-11-27T09:30:47.550Z,101018.77
2018-11-27T09:31:50.977Z,101015.20
2018-11-27T09:32:55.476Z,101019.01
2018-11-27T09:33:58.874Z,101022.08
2018-11-27T09:35:02.351Z,101015.20
2018-11-27T09:36:05.982Z,101023.70
2018-11-27T09:37:09.397Z,101019.33
2018-11-27T09:38:12.834Z,101017.14
2018-11-27T09:39:16.293Z,101019.57
2018-11-27T09:40:20.569Z,101025.25
2018-11-27T09:41:23.999Z,101024.01
2018-11-27T09:42:27.415Z,101027.67
2018-11-27T09:43:30.827Z,101029.43
2018-11-27T09:44:34.257Z,101028.88
2018-11-27T09:45:39.253Z,101023.75
2018-11-27T09:46:42.684Z,101029.03
2018-11-27T09:47:47.372Z,101028.14
2018-11-27T09:48:50.795Z,101025.34
2018-11-27T09:49:54.202Z,101029.34
2018-11-27T09:50:57.621Z,101029.84
2018-11-27T09:52:01.027Z,101030.20
2018-11-27T09:53:04.696Z,101025.50
2018-11-27T09:54:08.222Z,101022.42
2018-11-27T09:55:13.911Z,101015.78
2018-11-27T09:56:17.419Z,101012.21
2018-11-27T09:57:20.848Z,101015.29
2018-11-27T09:58:24.267Z,101018.05
2018-11-27T09:59:27.692Z,101012.22
2018-11-27T10:00:32.543Z,101010.22
2018-11-27T10:01:35.932Z,101010.78
2018-11-27T10:02:39.408Z,101016.70
2018-11-27T10:03:42.804Z,101013.73
2018-11-27T10:04:46.213Z,101011.30
2018-11-27T10:05:49.636Z,101012.59
2018-11-27T10:06:53.064Z,101017.63
2018-11-27T10:07:56.522Z,101010.98
2018-11-27T10:08:59.917Z,101013.08
2018-11-27T10:10:03.390Z,101018.11
2018-11-27T10:11:07.333Z,101017.22
2018-11-27T10:12:10.794Z,101013.08
2018-11-27T10:13:14.388Z,101017.55
2018-11-27T10:14:18.137Z,101013.81
2018-11-27T10:15:22.919Z,101007.98
2018-11-27T10:16:26.331Z,101004.98
2018-11-27T10:17:29.727Z,101004.73
2018-11-27T10:18:33.187Z,100999.11
2018-11-27T10:19:36.595Z,101001.14
2018-11-27T10:20:41.463Z,100998.55
2018-11-27T10:21:44.897Z,100995.59
2018-11-27T10:22:48.376Z,100991.55
2018-11-27T10:23:51.877Z,100990.98
2018-11-27T10:24:55.360Z,100992.27
2018-11-27T10:25:59.778Z,100993.81
2018-11-27T10:27:04.259Z,100990.05
2018-11-27T10:28:08.962Z,100987.13
2018-11-27T10:29:12.411Z,100984.21
2018-11-27T10:30:22.990Z,100990.09
2018-11-27T10:31:26.435Z,100989.00
2018-11-27T10:32:29.845Z,100990.22
2018-11-27T10:33:33.283Z,100993.30
2018-11-27T10:34:36.790Z,100990.38
2018-11-27T10:35:47.348Z,100992.95
2018-11-27T10:36:50.833Z,100999.59
2018-11-27T10:37:54.252Z,100994.95
2018-11-27T10:39:01.020Z,100998.59
2018-11-27T10:40:01.179Z,100994.85
2018-11-27T10:41:05.269Z,101000.11
2018-11-27T10:42:09.087Z,100999.37
2018-11-27T10:43:12.486Z,101000.52
2018-11-27T10:44:16.000Z,101004.44
2018-11-27T10:45:21.656Z,100998.89
2018-11-27T10:46:25.303Z,100998.25
2018-11-27T10:47:28.742Z,100994.45
2018-11-27T10:48:32.185Z,100993.20
2018-11-27T10:49:35.643Z,100992.73
2018-11-27T10:50:39.123Z,100998.92
2018-11-27T10:51:42.560Z,100996.17
2018-11-27T10:52:47.951Z,100990.34
2018-11-27T10:53:51.347Z,100993.66
2018-11-27T10:54:54.797Z,100998.55
2018-11-27T10:55:58.258Z,101002.93
2018-11-27T10:57:01.725Z,101003.66
2018-11-27T10:58:05.853Z,101005.04
2018-11-27T10:59:09.244Z,101007.31
2018-11-27T11:00:21.134Z,101007.80
2018-11-27T11:01:29.990Z,101004.55
2018-11-27T11:02:35.158Z,101007.67
2018-11-27T11:03:38.581Z,101008.56
2018-11-27T11:04:42.084Z,101011.69
2018-11-27T11:05:45.673Z,101011.44
2018-11-27T11:06:49.389Z,101012.33
2018-11-27T11:07:53.360Z,101015.66
2018-11-27T11:08:56.773Z,101017.10
2018-11-27T11:10:00.225Z,101016.86
2018-11-27T11:11:05.369Z,101018.88
2018-11-27T11:12:08.826Z,101019.17
2018-11-27T11:13:12.329Z,101019.48
2018-11-27T11:14:15.799Z,101024.39
2018-11-27T11:15:19.293Z,101020.99
2018-11-27T11:16:25.126Z,101023.52
2018-11-27T11:17:28.590Z,101019.54
2018-11-27T11:18:32.126Z,101022.70
2018-11-27T11:19:35.552Z,101026.36
2018-11-27T11:20:39.127Z,101019.59
2018-11-27T11:21:42.589Z,101026.40
2018-11-27T11:22:46.050Z,101025.75
2018-11-27T11:23:49.523Z,101019.99
2018-11-27T11:24:53.052Z,101027.37
2018-11-27T11:25:56.525Z,101027.94
2018-11-27T11:27:00.061Z,101023.08
2018-11-27T11:28:04.538Z,101028.02
2018-11-27T11:29:07.992Z,101025.51
2018-11-27T11:30:19.904Z,101026.97
2018-11-27T11:31:23.431Z,101025.67
2018-11-27T11:32:27.000Z,101027.17
2018-11-27T11:33:30.887Z,101024.41
2018-11-27T11:34:34.471Z,101025.06
2018-11-27T11:35:38.150Z,101030.08
2018-11-27T11:36:41.677Z,101026.84
2018-11-27T11:37:45.665Z,101024.97
2018-11-27T11:38:49.501Z,101031.38
2018-11-27T11:39:53.248Z,101026.15
2018-11-27T11:40:57.143Z,101025.38
2018-11-27T11:42:00.751Z,101025.22
2018-11-27T11:43:04.497Z,101028.05
2018-11-27T11:44:08.192Z,101033.31
2018-11-27T11:45:12.617Z,101028.69
2018-11-27T11:46:16.049Z,101033.14
2018-11-27T11:47:19.464Z,101031.52
2018-11-27T11:48:22.942Z,101031.03
2018-11-27T11:49:26.672Z,101033.51
2018-11-27T11:50:32.219Z,101028.39
2018-11-27T11:51:36.757Z,101029.28
2018-11-27T11:52:45.275Z,101029.92
2018-11-27T11:53:44.427Z,101029.43
2018-11-27T11:54:48.377Z,101022.62
2018-11-27T11:55:52.293Z,101025.98
2018-11-27T11:56:56.311Z,101029.05
2018-11-27T11:58:00.014Z,101023.05
2018-11-27T11:59:03.637Z,101027.19
2018-11-27T12:00:10.717Z,101028.62
2018-11-27T12:01:15.461Z,101024.50
2018-11-27T12:02:19.158Z,101031.31
2018-11-27T12:03:22.810Z,101029.22
2018-11-27T12:04:27.951Z,101029.03
2018-11-27T12:05:31.384Z,101029.38
2018-11-27T12:06:36.115Z,101031.86
2018-11-27T12:07:40.799Z,101029.59
2018-11-27T12:08:44.267Z,101026.84